TimeCDT,TemperatureF,Dew PointF,Humidity,Sea Level PressureIn,VisibilityMPH,Wind Direction,Wind SpeedMPH,Gust SpeedMPH,PrecipitationIn,Events,Conditions,WindDirDegrees,DateUTC
12:15 AM,51.1,42.6,73,29.85,10.0,NNW,4.6,-,N/A,,Scattered Clouds,340,2012-10-02 05:15:00
12:35 AM,53.6,45.0,73,29.85,10.0,North,6.9,-,N/A,,Clear,350,2012-10-02 05:35:00
12:55 AM,54.5,45.7,72,29.85,10.0,North,8.1,-,N/A,,Clear,350,2012-10-02 05:55:00
1:15 AM,54.5,46.0,73,29.86,10.0,North,6.9,-,N/A,,Clear,350,2012-10-02 06:15:00
1:35 AM,54.0,46.0,75,29.87,10.0,North,5.8,-,N/A,,Clear,360,2012-10-02 06:35:00
2:15 AM,52.7,45.9,78,29.87,10.0,North,5.8,-,N/A,,Clear,350,2012-10-02 07:15:00
2:35 AM,52.3,46.0,79,29.87,10.0,NNW,6.9,-,N/A,,Clear,340,2012-10-02 07:35:00
2:55 AM,51.8,45.9,80,29.87,10.0,NNW,5.8,-,N/A,,Clear,340,2012-10-02 07:55:00
3:15 AM,51.3,45.7,81,29.86,10.0,NNW,3.5,-,N/A,,Clear,340,2012-10-02 08:15:00
3:35 AM,50.0,45.1,83,29.86,10.0,North,4.6,-,N/A,,Clear,350,2012-10-02 08:35:00
4:15 AM,50.2,45.7,85,29.87,10.0,North,4.6,-,N/A,,Clear,350,2012-10-02 09:15:00
4:35 AM,49.5,45.5,86,29.87,10.0,North,5.8,-,N/A,,Clear,360,2012-10-02 09:35:00
4:55 AM,49.8,45.5,85,29.87,10.0,North,4.6,-,N/A,,Clear,10,2012-10-02 09:55:00
5:15 AM,49.3,45.5,87,29.87,10.0,North,4.6,-,N/A,,Clear,360,2012-10-02 10:15:00
5:35 AM,49.1,45.1,86,29.88,10.0,North,5.8,-,N/A,,Clear,350,2012-10-02 10:35:00
5:55 AM,49.3,45.5,87,29.89,10.0,North,6.9,-,N/A,,Clear,350,2012-10-02 10:55:00
6:15 AM,49.6,45.7,86,29.89,10.0,North,5.8,-,N/A,,Clear,360,2012-10-02 11:15:00
6:35 AM,48.9,45.0,86,29.89,10.0,North,4.6,-,N/A,,Clear,360,2012-10-02 11:35:00
6:55 AM,48.0,44.6,88,29.90,10.0,NNW,5.8,-,N/A,,Clear,340,2012-10-02 11:55:00
7:15 AM,48.0,44.6,88,29.90,10.0,North,6.9,-,N/A,,Clear,350,2012-10-02 12:15:00
7:35 AM,47.8,44.6,89,29.91,10.0,North,5.8,-,N/A,,Clear,350,2012-10-02 12:35:00
7:55 AM,49.1,45.7,88,29.91,10.0,Calm,Calm,-,N/A,,Clear,0,2012-10-02 12:55:00
8:15 AM,50.7,46.4,85,29.92,10.0,NNW,3.5,-,N/A,,Clear,340,2012-10-02 13:15:00
8:35 AM,52.0,46.8,82,29.92,10.0,North,4.6,-,N/A,,Clear,350,2012-10-02 13:35:00
8:55 AM,53.4,46.9,79,29.92,10.0,North,5.8,-,N/A,,Clear,360,2012-10-02 13:55:00
9:15 AM,55.4,47.7,75,29.92,10.0,North,6.9,-,N/A,,Clear,10,2012-10-02 14:15:00
9:35 AM,57.4,48.2,71,29.93,10.0,NNE,8.1,-,N/A,,Clear,30,2012-10-02 14:35:00
9:55 AM,59.2,48.6,68,29.93,10.0,North,6.9,-,N/A,,Clear,10,2012-10-02 14:55:00
10:15 AM,60.8,48.7,64,29.93,10.0,NE,5.8,-,N/A,,Clear,40,2012-10-02 15:15:00
10:35 AM,62.2,48.9,62,29.92,10.0,NNE,4.6,-,N/A,,Clear,30,2012-10-02 15:35:00
10:55 AM,63.3,49.1,60,29.92,10.0,North,3.5,-,N/A,,Clear,10,2012-10-02 15:55:00
11:15 AM,65.3,49.1,56,29.92,10.0,North,3.5,-,N/A,,Clear,350,2012-10-02 16:15:00
11:35 AM,66.7,48.9,53,29.92,10.0,NNE,3.5,-,N/A,,Clear,30,2012-10-02 16:35:00
11:55 AM,67.3,48.0,50,29.91,10.0,Calm,Calm,-,N/A,,Clear,0,2012-10-02 16:55:00
12:15 PM,69.4,48.0,46,29.91,10.0,East,4.6,-,N/A,,Clear,90,2012-10-02 17:15:00
12:35 PM,70.3,47.3,44,29.91,10.0,SE,3.5,-,N/A,,Clear,130,2012-10-02 17:35:00
12:55 PM,71.4,46.0,40,29.90,10.0,Calm,Calm,-,N/A,,Clear,0,2012-10-02 17:55:00
1:15 PM,71.2,46.2,41,29.89,10.0,Calm,Calm,-,N/A,,Clear,0,2012-10-02 18:15:00
1:35 PM,73.0,44.4,36,29.89,10.0,Calm,Calm,-,N/A,,Clear,0,2012-10-02 18:35:00
1:55 PM,73.4,44.4,35,29.87,10.0,South,3.5,-,N/A,,Clear,190,2012-10-02 18:55:00
2:15 PM,74.5,43.7,33,29.87,10.0,Calm,Calm,-,N/A,,Clear,0,2012-10-02 19:15:00
2:35 PM,75.4,43.3,32,29.86,10.0,NNW,5.8,-,N/A,,Clear,330,2012-10-02 19:35:00
2:55 PM,75.4,42.4,31,29.86,10.0,NE,3.5,-,N/A,,Clear,40,2012-10-02 19:55:00
3:15 PM,75.4,43.3,32,29.85,10.0,West,3.5,-,N/A,,Clear,280,2012-10-02 20:15:00
3:35 PM,75.7,42.3,30,29.85,10.0,NE,3.5,-,N/A,,Clear,50,2012-10-02 20:35:00
3:55 PM,75.7,42.8,31,29.85,10.0,Calm,Calm,-,N/A,,Clear,0,2012-10-02 20:55:00
4:15 PM,75.6,43.0,31,29.85,10.0,NW,4.6,-,N/A,,Clear,310,2012-10-02 21:15:00
4:35 PM,75.4,41.4,29,29.85,10.0,NE,3.5,-,N/A,,Clear,50,2012-10-02 21:35:00
4:55 PM,75.6,41.5,29,29.85,10.0,Calm,Calm,-,N/A,,Clear,0,2012-10-02 21:55:00
5:15 PM,74.7,41.7,31,29.85,10.0,Calm,Calm,-,N/A,,Clear,0,2012-10-02 22:15:00
5:35 PM,74.3,41.7,31,29.85,10.0,Calm,Calm,-,N/A,,Clear,0,2012-10-02 22:35:00
5:55 PM,73.6,42.1,32,29.85,10.0,Calm,Calm,-,N/A,,Clear,0,2012-10-02 22:55:00
6:15 PM,72.0,42.3,34,29.85,10.0,Calm,Calm,-,N/A,,Clear,0,2012-10-02 23:15:00
6:35 PM,66.0,44.2,45,29.86,3.0,Calm,Calm,-,N/A,,Haze,0,2012-10-02 23:35:00
7:15 PM,57.6,41.2,54,29.87,7.0,Calm,Calm,-,N/A,,Clear,0,2012-10-03 00:15:00
7:35 PM,55.4,40.3,57,29.87,7.0,Calm,Calm,-,N/A,,Clear,0,2012-10-03 00:35:00
7:55 PM,54.7,39.9,58,29.88,7.0,Calm,Calm,-,N/A,,Clear,0,2012-10-03 00:55:00
8:15 PM,53.6,39.2,58,29.88,7.0,Calm,Calm,-,N/A,,Clear,0,2012-10-03 01:15:00
8:35 PM,54.1,40.3,59,29.89,7.0,Calm,Calm,-,N/A,,Clear,0,2012-10-03 01:35:00
8:55 PM,52.0,39.9,63,29.89,10.0,Calm,Calm,-,N/A,,Clear,0,2012-10-03 01:55:00
9:15 PM,50.0,38.3,64,29.90,10.0,Calm,Calm,-,N/A,,Clear,0,2012-10-03 02:15:00
9:35 PM,49.1,38.1,66,29.90,10.0,Calm,Calm,-,N/A,,Clear,0,2012-10-03 02:35:00
9:55 PM,48.4,37.6,66,29.90,10.0,Calm,Calm,-,N/A,,Clear,0,2012-10-03 02:55:00
10:15 PM,48.0,37.4,67,29.90,10.0,Calm,Calm,-,N/A,,Clear,0,2012-10-03 03:15:00
10:35 PM,50.2,39.7,67,29.90,10.0,Calm,Calm,-,N/A,,Clear,0,2012-10-03 03:35:00
10:55 PM,47.3,37.6,69,29.90,7.0,Calm,Calm,-,N/A,,Clear,0,2012-10-03 03:55:00
11:15 PM,45.9,36.7,70,29.90,7.0,Calm,Calm,-,N/A,,Clear,0,2012-10-03 04:15:00
11:35 PM,45.7,36.3,70,29.90,7.0,Calm,Calm,-,N/A,,Clear,0,2012-10-03 04:35:00
11:55 PM,45.5,36.3,70,29.90,7.0,Calm,Calm,-,N/A,,Clear,0,2012-10-03 04:55:00